Webster, Kentucky
Current Conditions -  °F | °C
As of 4:58 AM on Monday 20 Oct 2014 (Local Time) from KFTK Reporting Station
Broken Clouds Broken Clouds  
Wind Chill: 44°   Ceiling: 15000
Heat Index: 44°   Visibility: 10mi
Dew Point: 42°   Wind: 0mph
Humidity: 93%   Direction: NA
Pressure: 30.03"   Gusts: NA
Location:  37.89°N, 86.34°W
Report Text: KFTK 200958Z AUTO 00000KT 10SM BKN150 07/06 A3003 RMK AO2 SLP172 T00680057
Loading
Personal Weather Stations






























Interactive Weather Map
Tropical Storm Tracking
New forecast layout! Learn more

10-Day Weather Forecast

Advertisements
Track Severe Weather on mobile